createdAt,value
2018-08-04T00:00:54.890Z,24.31
2018-08-04T00:01:54.952Z,24.32
2018-08-04T00:02:54.873Z,24.32
2018-08-04T00:03:54.790Z,24.32
2018-08-04T00:04:54.859Z,24.33
2018-08-04T00:05:54.985Z,24.31
2018-08-04T00:06:54.925Z,24.31
2018-08-04T00:07:55.020Z,24.32
2018-08-04T00:08:54.910Z,24.32
2018-08-04T00:09:55.020Z,24.32
2018-08-04T00:10:54.908Z,24.32
2018-08-04T00:11:55.143Z,24.31
2018-08-04T00:12:55.225Z,24.33
2018-08-04T00:13:54.821Z,24.31
2018-08-04T00:14:55.047Z,24.31
2018-08-04T00:15:54.960Z,24.32
2018-08-04T00:16:54.870Z,24.31
2018-08-04T00:17:55.077Z,24.31
2018-08-04T00:18:54.906Z,24.32
2018-08-04T00:19:54.913Z,24.31
2018-08-04T00:20:54.860Z,24.29
2018-08-04T00:21:54.742Z,24.29
2018-08-04T00:22:55.323Z,24.31
2018-08-04T00:23:54.766Z,24.32
2018-08-04T00:24:54.953Z,24.32
2018-08-04T00:25:55.141Z,24.32
2018-08-04T00:26:54.875Z,24.29
2018-08-04T00:27:54.986Z,24.29
2018-08-04T00:28:54.898Z,24.29
2018-08-04T00:29:55.395Z,24.29
2018-08-04T00:30:54.695Z,24.3
2018-08-04T00:31:55.225Z,24.3
2018-08-04T00:32:54.832Z,24.3
2018-08-04T00:33:54.983Z,24.29
2018-08-04T00:34:54.912Z,24.31
2018-08-04T00:35:54.910Z,24.3
2018-08-04T00:36:54.881Z,24.31
2018-08-04T00:37:54.882Z,24.32
2018-08-04T00:38:54.933Z,24.31
2018-08-04T00:39:54.837Z,24.31
2018-08-04T00:40:54.910Z,24.3
2018-08-04T00:41:55.000Z,24.3
2018-08-04T00:42:54.994Z,24.3
2018-08-04T00:43:54.735Z,24.31
2018-08-04T00:44:54.814Z,24.29
2018-08-04T00:45:54.816Z,24.29
2018-08-04T00:46:54.907Z,24.29
2018-08-04T00:47:54.866Z,24.31
2018-08-04T00:48:54.834Z,24.3
2018-08-04T00:49:55.103Z,24.3
2018-08-04T00:50:54.921Z,24.28
2018-08-04T00:51:54.821Z,24.3
2018-08-04T00:52:55.011Z,24.28
2018-08-04T00:53:54.894Z,24.3
2018-08-04T00:54:54.990Z,24.3
2018-08-04T00:55:54.853Z,24.29
2018-08-04T00:56:55.050Z,24.27
2018-08-04T00:57:54.807Z,24.29
2018-08-04T00:58:55.045Z,24.29
2018-08-04T00:59:54.773Z,24.28
2018-08-04T01:00:55.074Z,24.29
2018-08-04T01:01:54.944Z,24.28
2018-08-04T01:02:54.858Z,24.29
2018-08-04T01:03:55.197Z,24.3
2018-08-04T01:04:54.838Z,24.29
2018-08-04T01:05:54.995Z,24.3
2018-08-04T01:06:54.739Z,24.29
2018-08-04T01:07:54.957Z,24.28
2018-08-04T01:08:54.788Z,24.27
2018-08-04T01:09:54.907Z,24.28
2018-08-04T01:10:54.822Z,24.29
2018-08-04T01:11:54.883Z,24.29
2018-08-04T01:12:54.850Z,24.29
2018-08-04T01:13:54.985Z,24.27
2018-08-04T01:14:54.881Z,24.3
2018-08-04T01:15:54.735Z,24.27
2018-08-04T01:16:54.958Z,24.31
2018-08-04T01:17:54.895Z,24.29
2018-08-04T01:18:54.776Z,24.29
2018-08-04T01:19:54.880Z,24.28
2018-08-04T01:20:54.886Z,24.28
2018-08-04T01:21:55.055Z,24.29
2018-08-04T01:22:54.814Z,24.28
2018-08-04T01:23:54.985Z,24.28
2018-08-04T01:24:54.852Z,24.28
2018-08-04T01:25:55.041Z,24.29
2018-08-04T01:26:55.109Z,24.29
2018-08-04T01:27:54.997Z,24.29
2018-08-04T01:28:54.957Z,24.26
2018-08-04T01:29:54.912Z,24.28
2018-08-04T01:30:54.770Z,24.28
2018-08-04T01:31:54.890Z,24.29
2018-08-04T01:32:54.982Z,24.3
2018-08-04T01:33:55.077Z,24.28
2018-08-04T01:34:54.895Z,24.28
2018-08-04T01:35:54.873Z,24.29
2018-08-04T01:36:54.922Z,24.26
2018-08-04T01:37:54.858Z,24.29
2018-08-04T01:38:54.985Z,24.29
2018-08-04T01:39:55.021Z,24.27
2018-08-04T01:40:54.737Z,24.28
2018-08-04T01:41:54.826Z,24.28
2018-08-04T01:42:55.470Z,24.28
2018-08-04T01:43:54.980Z,24.28
2018-08-04T01:44:55.016Z,24.29
2018-08-04T01:45:54.860Z,24.28
2018-08-04T01:46:54.961Z,24.27
2018-08-04T01:47:54.969Z,24.28
2018-08-04T01:48:54.846Z,24.29
2018-08-04T01:49:54.723Z,24.28
2018-08-04T01:50:54.807Z,24.28
2018-08-04T01:51:54.784Z,24.28
2018-08-04T01:52:54.923Z,24.28
2018-08-04T01:53:55.028Z,24.29
2018-08-04T01:54:54.777Z,24.27
2018-08-04T01:55:55.144Z,24.27
2018-08-04T01:56:54.943Z,24.27
2018-08-04T01:57:54.920Z,24.26
2018-08-04T01:58:54.855Z,24.27
2018-08-04T01:59:54.874Z,24.27
2018-08-04T02:00:54.749Z,24.28
2018-08-04T02:01:54.984Z,24.28
2018-08-04T02:02:54.822Z,24.27
2018-08-04T02:03:54.713Z,24.27
2018-08-04T02:04:54.736Z,24.28
2018-08-04T02:05:54.991Z,24.27
2018-08-04T02:06:55.296Z,24.26
2018-08-04T02:07:54.845Z,24.28
2018-08-04T02:08:54.878Z,24.26
2018-08-04T02:09:54.816Z,24.27
2018-08-04T02:10:54.982Z,24.26
2018-08-04T02:11:54.865Z,24.26
2018-08-04T02:12:54.794Z,24.27
2018-08-04T02:13:54.795Z,24.28
2018-08-04T02:14:54.964Z,24.28
2018-08-04T02:15:55.409Z,24.28
2018-08-04T02:16:55.115Z,24.28
2018-08-04T02:17:54.980Z,24.27
2018-08-04T02:18:54.864Z,24.28
2018-08-04T02:19:54.811Z,24.27
2018-08-04T02:20:54.842Z,24.26
2018-08-04T02:21:54.854Z,24.26
2018-08-04T02:22:54.863Z,24.26
2018-08-04T02:23:54.940Z,24.29
2018-08-04T02:24:54.783Z,24.26
2018-08-04T02:25:54.823Z,24.26
2018-08-04T02:26:54.788Z,24.28
2018-08-04T02:27:54.754Z,24.27
2018-08-04T02:28:54.798Z,24.26
2018-08-04T02:29:54.859Z,24.26
2018-08-04T02:30:54.896Z,24.28
2018-08-04T02:31:54.894Z,24.27
2018-08-04T02:32:54.924Z,24.28
2018-08-04T02:33:54.907Z,24.28
2018-08-04T02:34:54.938Z,24.25
2018-08-04T02:35:54.778Z,24.26
2018-08-04T02:36:54.761Z,24.25
2018-08-04T02:37:54.758Z,24.26
2018-08-04T02:38:54.957Z,24.27
2018-08-04T02:39:54.755Z,24.27
2018-08-04T02:40:55.029Z,24.27
2018-08-04T02:41:54.785Z,24.28
2018-08-04T02:42:54.976Z,24.28
2018-08-04T02:43:54.805Z,24.28
2018-08-04T02:44:54.894Z,24.26
2018-08-04T02:45:54.676Z,24.27
2018-08-04T02:46:54.901Z,24.26
2018-08-04T02:47:54.908Z,24.25
2018-08-04T02:48:54.985Z,24.28
2018-08-04T02:49:54.873Z,24.26
2018-08-04T02:50:54.933Z,24.27
2018-08-04T02:51:54.869Z,24.27
2018-08-04T02:52:54.983Z,24.26
2018-08-04T02:53:54.904Z,24.26
2018-08-04T02:54:54.735Z,24.27
2018-08-04T02:55:55.085Z,24.27
2018-08-04T02:56:54.946Z,24.26
2018-08-04T02:57:55.128Z,24.26
2018-08-04T02:58:54.772Z,24.27
2018-08-04T02:59:54.860Z,24.25
2018-08-04T03:00:54.807Z,24.27
2018-08-04T03:01:54.976Z,24.26
2018-08-04T03:02:55.093Z,24.26
2018-08-04T03:03:54.723Z,24.25
2018-08-04T03:04:55.035Z,24.26
2018-08-04T03:05:54.741Z,24.26
2018-08-04T03:06:54.935Z,24.26
2018-08-04T03:07:54.921Z,24.27
2018-08-04T03:08:54.766Z,24.26
2018-08-04T03:09:54.801Z,24.26
2018-08-04T03:10:54.996Z,24.27
2018-08-04T03:11:55.081Z,24.25
2018-08-04T03:12:54.843Z,24.27
2018-08-04T03:13:54.997Z,24.24
2018-08-04T03:14:54.900Z,24.28
2018-08-04T03:15:55.053Z,24.26
2018-08-04T03:16:54.938Z,24.24
2018-08-04T03:17:54.910Z,24.27
2018-08-04T03:18:54.841Z,24.25
2018-08-04T03:19:54.802Z,24.26
2018-08-04T03:20:54.955Z,24.25
2018-08-04T03:21:54.782Z,24.26
2018-08-04T03:22:54.784Z,24.26
2018-08-04T03:23:54.949Z,24.25
2018-08-04T03:24:54.990Z,24.26
2018-08-04T03:25:54.796Z,24.26
2018-08-04T03:26:54.908Z,24.26
2018-08-04T03:27:55.145Z,24.26
2018-08-04T03:28:54.822Z,24.26
2018-08-04T03:29:54.951Z,24.26
2018-08-04T03:30:55.059Z,24.26
2018-08-04T03:31:54.978Z,24.24
2018-08-04T03:32:54.997Z,24.26
2018-08-04T03:33:54.873Z,24.27
2018-08-04T03:34:54.834Z,24.27
2018-08-04T03:35:54.973Z,24.26
2018-08-04T03:36:55.003Z,24.24
2018-08-04T03:37:54.837Z,24.26
2018-08-04T03:38:54.898Z,24.24
2018-08-04T03:39:54.874Z,24.24
2018-08-04T03:40:54.954Z,24.26
2018-08-04T03:41:54.724Z,24.27
2018-08-04T03:42:54.878Z,24.26
2018-08-04T03:43:54.854Z,24.25
2018-08-04T03:44:54.963Z,24.24
2018-08-04T03:45:54.749Z,24.25
2018-08-04T03:46:54.873Z,24.25
2018-08-04T03:47:54.859Z,24.26
2018-08-04T03:48:54.956Z,24.26
2018-08-04T03:49:55.052Z,24.24
2018-08-04T03:50:54.708Z,24.25
2018-08-04T03:51:54.987Z,24.25
2018-08-04T03:52:54.819Z,24.26
2018-08-04T03:53:54.995Z,24.27
2018-08-04T03:54:54.877Z,24.25
2018-08-04T03:55:54.975Z,24.23
2018-08-04T03:56:54.844Z,24.26
2018-08-04T03:57:54.975Z,24.24
2018-08-04T03:58:54.951Z,24.28
2018-08-04T03:59:54.686Z,24.24
2018-08-04T04:00:54.934Z,24.26
2018-08-04T04:01:54.937Z,24.25
2018-08-04T04:02:54.783Z,24.25
2018-08-04T04:03:54.792Z,24.25
2018-08-04T04:04:54.840Z,24.25
2018-08-04T04:05:54.808Z,24.26
2018-08-04T04:06:54.829Z,24.25
2018-08-04T04:07:54.817Z,24.24
2018-08-04T04:08:54.688Z,24.26
2018-08-04T04:09:54.922Z,24.25
2018-08-04T04:10:54.732Z,24.23
2018-08-04T04:11:55.022Z,24.25
2018-08-04T04:12:55.160Z,24.25
2018-08-04T04:13:54.794Z,24.25
2018-08-04T04:14:54.847Z,24.25
2018-08-04T04:15:54.891Z,24.24
2018-08-04T04:16:55.040Z,24.24
2018-08-04T04:17:54.776Z,24.24
2018-08-04T04:18:54.917Z,24.24
2018-08-04T04:19:55.000Z,24.24
2018-08-04T04:20:54.832Z,24.25
2018-08-04T04:21:55.021Z,24.24
2018-08-04T04:22:54.870Z,24.24
2018-08-04T04:23:54.909Z,24.24
2018-08-04T04:24:55.101Z,24.26
2018-08-04T04:25:54.783Z,24.24
2018-08-04T04:26:54.756Z,24.25
2018-08-04T04:27:54.759Z,24.24
2018-08-04T04:28:55.097Z,24.24
2018-08-04T04:29:54.972Z,24.25
2018-08-04T04:30:55.116Z,24.23
2018-08-04T04:31:54.844Z,24.25
2018-08-04T04:32:54.842Z,24.24
2018-08-04T04:33:54.983Z,24.26
2018-08-04T04:34:54.849Z,24.21
2018-08-04T04:35:54.909Z,24.25
2018-08-04T04:36:55.220Z,24.23
2018-08-04T04:37:54.922Z,24.23
2018-08-04T04:38:54.788Z,24.23
2018-08-04T04:39:54.910Z,24.24
2018-08-04T04:40:55.101Z,24.24
2018-08-04T04:41:54.939Z,24.26
2018-08-04T04:42:54.800Z,24.24
2018-08-04T04:43:54.871Z,24.24
2018-08-04T04:44:54.866Z,24.24
2018-08-04T04:45:55.021Z,24.24
2018-08-04T04:46:54.661Z,24.24
2018-08-04T04:47:54.788Z,24.24
2018-08-04T04:48:54.790Z,24.24
2018-08-04T04:49:54.807Z,24.25
2018-08-04T04:50:54.772Z,24.24
2018-08-04T04:51:54.951Z,24.25
2018-08-04T04:52:54.847Z,24.24
2018-08-04T04:53:54.665Z,24.23
2018-08-04T04:54:54.821Z,24.24
2018-08-04T04:55:54.970Z,24.24
2018-08-04T04:56:54.815Z,24.23
2018-08-04T04:57:54.834Z,24.26
2018-08-04T04:58:54.788Z,24.21
2018-08-04T04:59:54.823Z,24.21
2018-08-04T05:00:54.783Z,24.24
2018-08-04T05:01:55.164Z,24.24
2018-08-04T05:02:54.819Z,24.24
2018-08-04T05:03:54.754Z,24.23
2018-08-04T05:04:54.924Z,24.24
2018-08-04T05:05:54.926Z,24.24
2018-08-04T05:06:54.766Z,24.23
2018-08-04T05:07:54.919Z,24.24
2018-08-04T05:08:54.726Z,24.24
2018-08-04T05:09:55.137Z,24.23
2018-08-04T05:10:54.746Z,24.23
2018-08-04T05:11:54.888Z,24.25
2018-08-04T05:12:55.122Z,24.24
2018-08-04T05:13:54.844Z,24.24
2018-08-04T05:14:54.923Z,24.21
2018-08-04T05:15:54.878Z,24.23
2018-08-04T05:16:55.047Z,24.23
2018-08-04T05:17:54.831Z,24.24
2018-08-04T05:18:54.721Z,24.2
2018-08-04T05:19:54.946Z,24.24
2018-08-04T05:20:54.938Z,24.24
2018-08-04T05:21:54.958Z,24.24
2018-08-04T05:22:54.822Z,24.24
2018-08-04T05:23:54.852Z,24.24
2018-08-04T05:24:55.220Z,24.23
2018-08-04T05:25:54.764Z,24.23
2018-08-04T05:26:54.848Z,24.23
2018-08-04T05:27:54.944Z,24.23
2018-08-04T05:28:54.782Z,24.24
2018-08-04T05:29:54.795Z,24.24
2018-08-04T05:30:54.841Z,24.23
2018-08-04T05:31:55.020Z,24.23
2018-08-04T05:32:54.780Z,24.21
2018-08-04T05:33:54.849Z,24.2
2018-08-04T05:34:54.817Z,24.24
2018-08-04T05:35:54.943Z,24.21
2018-08-04T05:36:54.847Z,24.25
2018-08-04T05:37:54.979Z,24.21
2018-08-04T05:38:54.645Z,24.21
2018-08-04T05:39:54.884Z,24.23
2018-08-04T05:40:54.735Z,24.23
2018-08-04T05:41:54.880Z,24.2
2018-08-04T05:42:54.818Z,24.21
2018-08-04T05:43:54.946Z,24.23
2018-08-04T05:44:55.043Z,24.2
2018-08-04T05:45:54.912Z,24.24
2018-08-04T05:46:54.801Z,24.21
2018-08-04T05:47:54.725Z,24.21
2018-08-04T05:48:54.751Z,24.19
2018-08-04T05:49:55.042Z,24.21
2018-08-04T05:50:54.842Z,24.23
2018-08-04T05:51:54.717Z,24.23
2018-08-04T05:52:54.725Z,24.23
2018-08-04T05:53:54.818Z,24.21
2018-08-04T05:54:54.944Z,24.23
2018-08-04T05:55:54.819Z,24.24
2018-08-04T05:56:54.811Z,24.24
2018-08-04T05:57:55.058Z,24.21
2018-08-04T05:58:54.599Z,24.24
2018-08-04T05:59:54.763Z,24.24
2018-08-04T06:00:54.823Z,24.21
2018-08-04T06:01:54.833Z,24.23
2018-08-04T06:02:54.764Z,24.21
2018-08-04T06:03:54.726Z,24.21
2018-08-04T06:04:54.941Z,24.2
2018-08-04T06:05:54.925Z,24.21
2018-08-04T06:06:54.854Z,24.2
2018-08-04T06:07:54.705Z,24.19
2018-08-04T06:08:54.821Z,24.21
2018-08-04T06:09:54.918Z,24.21
2018-08-04T06:10:54.801Z,24.2
2018-08-04T06:11:54.788Z,24.19
2018-08-04T06:12:54.761Z,24.21
2018-08-04T06:13:54.825Z,24.2
2018-08-04T06:14:54.866Z,24.21
2018-08-04T06:15:54.680Z,24.19
2018-08-04T06:16:54.862Z,24.23
2018-08-04T06:17:54.855Z,24.2
2018-08-04T06:18:54.922Z,24.19
2018-08-04T06:19:54.898Z,24.2
2018-08-04T06:20:54.866Z,24.21
2018-08-04T06:21:55.087Z,24.21
2018-08-04T06:22:54.881Z,24.23
2018-08-04T06:23:54.925Z,24.2
2018-08-04T06:24:55.032Z,24.19
2018-08-04T06:25:54.648Z,24.2
2018-08-04T06:26:54.801Z,24.21
2018-08-04T06:27:54.848Z,24.23
2018-08-04T06:28:54.823Z,24.2
2018-08-04T06:29:54.853Z,24.2
2018-08-04T06:30:54.884Z,24.23
2018-08-04T06:31:54.742Z,24.18
2018-08-04T06:32:54.903Z,24.21
2018-08-04T06:33:54.764Z,24.19
2018-08-04T06:34:54.845Z,24.19
2018-08-04T06:35:54.892Z,24.23
2018-08-04T06:36:54.826Z,24.21
2018-08-04T06:37:54.889Z,24.21
2018-08-04T06:38:54.929Z,24.21
2018-08-04T06:39:54.924Z,24.2
2018-08-04T06:40:54.943Z,24.19
2018-08-04T06:41:54.699Z,24.21
2018-08-04T06:42:55.093Z,24.19
2018-08-04T06:43:54.907Z,24.21
2018-08-04T06:44:54.882Z,24.19
2018-08-04T06:45:54.952Z,24.2
2018-08-04T06:46:54.933Z,24.2
2018-08-04T06:47:54.840Z,24.24
2018-08-04T06:48:55.104Z,24.19
2018-08-04T06:49:54.747Z,24.2
2018-08-04T06:50:54.780Z,24.21
2018-08-04T06:51:54.818Z,24.21
2018-08-04T06:52:55.121Z,24.2
2018-08-04T06:53:54.913Z,24.2
2018-08-04T06:54:54.858Z,24.2
2018-08-04T06:55:54.854Z,24.21
2018-08-04T06:56:54.943Z,24.21
2018-08-04T06:57:54.848Z,24.2
2018-08-04T06:58:54.737Z,24.21
2018-08-04T06:59:54.931Z,24.21
2018-08-04T07:00:55.159Z,24.19
2018-08-04T07:01:54.806Z,24.2
2018-08-04T07:02:54.841Z,24.19
2018-08-04T07:03:54.913Z,24.21
2018-08-04T07:04:54.947Z,24.2
2018-08-04T07:05:54.912Z,24.19
2018-08-04T07:06:54.845Z,24.19
2018-08-04T07:07:54.916Z,24.21
2018-08-04T07:08:54.857Z,24.2
2018-08-04T07:09:55.072Z,24.19
2018-08-04T07:10:54.853Z,24.21
2018-08-04T07:11:54.967Z,24.2
2018-08-04T07:12:54.716Z,24.21
2018-08-04T07:13:54.855Z,24.2
2018-08-04T07:14:54.730Z,24.24
2018-08-04T07:15:54.913Z,24.21
2018-08-04T07:16:54.939Z,24.2
2018-08-04T07:17:54.921Z,24.25
2018-08-04T07:18:54.864Z,24.2
2018-08-04T07:19:54.927Z,24.19
2018-08-04T07:20:54.791Z,24.2
2018-08-04T07:21:54.701Z,24.19
2018-08-04T07:22:55.540Z,24.2
2018-08-04T07:23:54.802Z,24.19
2018-08-04T07:24:54.786Z,24.19
2018-08-04T07:25:54.674Z,24.19
2018-08-04T07:26:54.715Z,24.21
2018-08-04T07:27:54.789Z,24.21
2018-08-04T07:28:55.444Z,24.21
2018-08-04T07:29:54.779Z,24.19
2018-08-04T07:30:54.734Z,24.19
2018-08-04T07:31:54.717Z,24.21
2018-08-04T07:32:54.729Z,24.2
2018-08-04T07:33:54.773Z,24.19
2018-08-04T07:34:54.742Z,24.2
2018-08-04T07:35:54.841Z,24.2
2018-08-04T07:36:54.756Z,24.19
2018-08-04T07:37:54.685Z,24.2
2018-08-04T07:38:54.748Z,24.19
2018-08-04T07:39:54.773Z,24.23
2018-08-04T07:40:55.177Z,24.24
2018-08-04T07:41:54.886Z,24.2
2018-08-04T07:42:54.719Z,24.19
2018-08-04T07:43:54.839Z,24.2
2018-08-04T07:44:54.753Z,24.21
2018-08-04T07:45:54.951Z,24.19
2018-08-04T07:46:55.112Z,24.21
2018-08-04T07:47:54.710Z,24.19
2018-08-04T07:48:54.930Z,24.19
2018-08-04T07:49:54.966Z,24.21
2018-08-04T07:50:54.787Z,24.2
2018-08-04T07:51:54.755Z,24.2
2018-08-04T07:52:54.908Z,24.21
2018-08-04T07:53:54.970Z,24.2
2018-08-04T07:54:54.909Z,24.21
2018-08-04T07:55:55.005Z,24.2
2018-08-04T07:56:54.926Z,24.2
2018-08-04T07:57:54.657Z,24.21
2018-08-04T07:58:54.905Z,24.21
2018-08-04T07:59:54.738Z,24.23
2018-08-04T08:00:54.831Z,24.2
2018-08-04T08:01:54.769Z,24.23
2018-08-04T08:02:54.773Z,24.24
2018-08-04T08:03:54.657Z,24.24
2018-08-04T08:04:55.197Z,24.26
2018-08-04T08:05:54.760Z,24.28
2018-08-04T08:06:54.757Z,24.28
2018-08-04T08:07:54.859Z,24.3
2018-08-04T08:08:54.895Z,24.31
2018-08-04T08:09:54.731Z,24.29
2018-08-04T08:10:55.565Z,24.34
2018-08-04T08:11:55.253Z,24.35
2018-08-04T08:12:54.988Z,24.34
2018-08-04T08:13:54.810Z,24.34
2018-08-04T08:14:54.778Z,24.35
2018-08-04T08:15:54.888Z,24.36
2018-08-04T08:16:54.736Z,24.39
2018-08-04T08:17:54.680Z,24.4
2018-08-04T08:18:54.816Z,24.39
2018-08-04T08:19:54.839Z,24.39
2018-08-04T08:20:54.803Z,24.41
2018-08-04T08:21:54.860Z,24.45
2018-08-04T08:22:54.857Z,24.43
2018-08-04T08:23:55.054Z,24.45
2018-08-04T08:24:55.109Z,24.45
2018-08-04T08:25:54.869Z,24.45
2018-08-04T08:26:55.486Z,24.46
2018-08-04T08:27:55.024Z,24.46
2018-08-04T08:28:54.888Z,24.45
2018-08-04T08:29:54.898Z,24.46
2018-08-04T08:30:54.966Z,24.45
2018-08-04T08:31:55.032Z,24.44
2018-08-04T08:32:54.969Z,24.44
2018-08-04T08:33:54.790Z,24.46
2018-08-04T08:34:54.926Z,24.49
2018-08-04T08:35:54.768Z,24.49
2018-08-04T08:36:54.854Z,24.48
2018-08-04T08:37:54.762Z,24.48
2018-08-04T08:38:54.814Z,24.48
2018-08-04T08:39:54.872Z,24.48
2018-08-04T08:40:54.868Z,24.45
2018-08-04T08:41:55.012Z,24.45
2018-08-04T08:42:54.881Z,24.47
2018-08-04T08:43:54.732Z,24.46
2018-08-04T08:44:54.774Z,24.45
2018-08-04T08:45:54.754Z,24.45
2018-08-04T08:46:54.706Z,24.45
2018-08-04T08:47:54.858Z,24.45
2018-08-04T08:48:54.756Z,24.46
2018-08-04T08:49:54.865Z,24.47
2018-08-04T08:50:55.008Z,24.51
2018-08-04T08:51:54.760Z,24.51
2018-08-04T08:52:54.791Z,24.48
2018-08-04T08:53:55.363Z,24.5
2018-08-04T08:54:54.865Z,24.54
2018-08-04T08:55:54.737Z,24.55
2018-08-04T08:56:54.813Z,24.53
2018-08-04T08:57:54.885Z,24.54
2018-08-04T08:58:54.905Z,24.56
2018-08-04T08:59:54.829Z,24.56
2018-08-04T09:00:54.878Z,24.57
2018-08-04T09:01:54.752Z,24.57
2018-08-04T09:02:54.830Z,24.57
2018-08-04T09:03:54.951Z,24.6
2018-08-04T09:04:54.939Z,24.6
2018-08-04T09:05:54.848Z,24.58
2018-08-04T09:06:54.810Z,24.58
2018-08-04T09:07:54.811Z,24.58
2018-08-04T09:08:54.836Z,24.59
2018-08-04T09:09:54.754Z,24.62
2018-08-04T09:10:54.933Z,24.62
2018-08-04T09:11:54.888Z,24.62
2018-08-04T09:12:54.782Z,24.64
2018-08-04T09:13:54.756Z,24.65
2018-08-04T09:14:55.020Z,24.64
2018-08-04T09:15:54.791Z,24.65
2018-08-04T09:16:55.006Z,24.65
2018-08-04T09:17:54.892Z,24.65
2018-08-04T09:18:54.805Z,24.66
2018-08-04T09:19:54.870Z,24.66
2018-08-04T09:20:54.783Z,24.68
2018-08-04T09:21:54.832Z,24.65
2018-08-04T09:22:54.911Z,24.68
2018-08-04T09:23:54.745Z,24.64
2018-08-04T09:24:54.769Z,24.68
2018-08-04T09:25:54.788Z,24.63
2018-08-04T09:26:54.794Z,24.63
2018-08-04T09:27:54.812Z,24.61
2018-08-04T09:28:55.633Z,24.6
2018-08-04T09:29:54.889Z,24.59
2018-08-04T09:30:55.323Z,24.57
2018-08-04T09:31:54.727Z,24.57
2018-08-04T09:32:54.903Z,24.58
2018-08-04T09:33:54.811Z,24.54
2018-08-04T09:34:54.835Z,24.55
2018-08-04T09:35:55.063Z,24.56
2018-08-04T09:36:54.928Z,24.53
2018-08-04T09:37:54.841Z,24.51
2018-08-04T09:38:54.829Z,24.53
2018-08-04T09:39:54.729Z,24.51
2018-08-04T09:40:54.715Z,24.51
2018-08-04T09:41:54.934Z,24.51
2018-08-04T09:42:54.699Z,24.5
2018-08-04T09:43:54.877Z,24.49
2018-08-04T09:44:56.713Z,24.5
2018-08-04T09:45:54.853Z,24.47
2018-08-04T09:46:55.496Z,24.49
2018-08-04T09:47:54.954Z,24.48
2018-08-04T09:48:54.750Z,24.47
2018-08-04T09:49:56.257Z,24.46
2018-08-04T09:50:55.706Z,24.49
2018-08-04T09:51:54.729Z,24.44
2018-08-04T09:52:54.687Z,24.46
2018-08-04T09:53:56.389Z,24.45
2018-08-04T09:54:54.732Z,24.46
2018-08-04T09:55:54.833Z,24.46
2018-08-04T09:56:54.912Z,24.46
2018-08-04T09:57:54.908Z,24.43
2018-08-04T09:58:54.717Z,24.45
2018-08-04T09:59:54.690Z,24.46
2018-08-04T10:00:55.370Z,24.44
2018-08-04T10:01:54.882Z,24.45
2018-08-04T10:02:54.667Z,24.45
2018-08-04T10:03:54.817Z,24.44
2018-08-04T10:04:54.810Z,24.44
2018-08-04T10:05:54.758Z,24.44
2018-08-04T10:06:54.822Z,24.44
2018-08-04T10:07:54.736Z,24.42
2018-08-04T10:08:54.749Z,24.43
2018-08-04T10:09:54.589Z,24.44
2018-08-04T10:10:54.899Z,24.42
2018-08-04T10:11:54.836Z,24.42
2018-08-04T10:12:54.765Z,24.43
2018-08-04T10:13:54.637Z,24.42
2018-08-04T10:14:54.819Z,24.45
2018-08-04T10:15:54.789Z,24.42
2018-08-04T10:16:54.686Z,24.42
2018-08-04T10:17:54.743Z,24.43
2018-08-04T10:18:54.636Z,24.4
2018-08-04T10:19:54.811Z,24.39
2018-08-04T10:20:54.829Z,24.41
2018-08-04T10:21:54.789Z,24.42
2018-08-04T10:22:54.881Z,24.4
2018-08-04T10:23:54.980Z,24.41
2018-08-04T10:24:54.868Z,24.39
2018-08-04T10:25:55.034Z,24.4
2018-08-04T10:26:54.780Z,24.41
2018-08-04T10:27:54.660Z,24.4
2018-08-04T10:28:54.882Z,24.39
2018-08-04T10:29:54.798Z,24.4
2018-08-04T10:30:54.931Z,24.41
2018-08-04T10:31:55.122Z,24.42
2018-08-04T10:32:54.714Z,24.42
2018-08-04T10:33:54.921Z,24.36
2018-08-04T10:34:54.968Z,24.4
2018-08-04T10:35:55.366Z,24.43
2018-08-04T10:36:54.690Z,24.4
2018-08-04T10:37:54.818Z,24.41
2018-08-04T10:38:55.981Z,24.39
2018-08-04T10:39:55.036Z,24.42
2018-08-04T10:40:57.254Z,24.39
2018-08-04T10:41:55.112Z,24.4
2018-08-04T10:42:55.008Z,24.41
2018-08-04T10:43:55.015Z,24.39
2018-08-04T10:44:54.744Z,24.39
2018-08-04T10:45:54.806Z,24.38
2018-08-04T10:46:54.870Z,24.39
2018-08-04T10:47:54.742Z,24.39
2018-08-04T10:48:54.838Z,24.39
2018-08-04T10:49:55.096Z,24.38
2018-08-04T10:50:54.740Z,24.4
2018-08-04T10:51:54.799Z,24.4
2018-08-04T10:52:54.772Z,24.4
2018-08-04T10:53:54.893Z,24.38
2018-08-04T10:54:54.789Z,24.39
2018-08-04T10:55:54.885Z,24.38
2018-08-04T10:56:55.061Z,24.38
2018-08-04T10:57:54.703Z,24.38
2018-08-04T10:58:54.790Z,24.39
2018-08-04T10:59:54.778Z,24.38
2018-08-04T11:00:54.813Z,24.38
2018-08-04T11:01:54.973Z,24.36
2018-08-04T11:02:54.848Z,24.39
2018-08-04T11:03:55.212Z,24.39
2018-08-04T11:04:54.636Z,24.36
2018-08-04T11:05:54.817Z,24.39
2018-08-04T11:06:54.812Z,24.38
2018-08-04T11:07:54.856Z,24.39
2018-08-04T11:08:54.841Z,24.38
2018-08-04T11:09:54.960Z,24.38
2018-08-04T11:10:54.616Z,24.36
2018-08-04T11:11:54.917Z,24.38
2018-08-04T11:12:54.765Z,24.38
2018-08-04T11:13:54.910Z,24.36
2018-08-04T11:14:54.662Z,24.38
2018-08-04T11:15:55.059Z,24.39
2018-08-04T11:16:55.014Z,24.39
2018-08-04T11:17:55.115Z,24.38
2018-08-04T11:18:54.770Z,24.36
2018-08-04T11:19:54.956Z,24.38
2018-08-04T11:20:54.805Z,24.38
2018-08-04T11:21:54.911Z,24.36
2018-08-04T11:22:54.836Z,24.35
2018-08-04T11:23:54.833Z,24.36
2018-08-04T11:24:54.788Z,24.35
2018-08-04T11:25:54.830Z,24.38
2018-08-04T11:26:54.790Z,24.36
2018-08-04T11:27:54.983Z,24.36
2018-08-04T11:28:54.745Z,24.36
2018-08-04T11:29:54.890Z,24.39
2018-08-04T11:30:55.347Z,24.42
2018-08-04T11:31:54.731Z,24.42
2018-08-04T11:32:54.738Z,24.41
2018-08-04T11:33:54.848Z,24.38
2018-08-04T11:34:54.704Z,24.36
2018-08-04T11:35:54.638Z,24.35
2018-08-04T11:36:54.820Z,24.32
2018-08-04T11:37:54.828Z,24.32
2018-08-04T11:38:55.086Z,24.31
2018-08-04T11:39:54.819Z,24.28
2018-08-04T11:40:54.924Z,24.29
2018-08-04T11:41:54.736Z,24.28
2018-08-04T11:42:54.707Z,24.29
2018-08-04T11:43:54.818Z,24.29
2018-08-04T11:44:55.010Z,24.26
2018-08-04T11:45:55.022Z,24.28
2018-08-04T11:46:54.759Z,24.27
2018-08-04T11:47:54.802Z,24.28
2018-08-04T11:48:54.904Z,24.27
2018-08-04T11:49:54.956Z,24.27
2018-08-04T11:50:54.653Z,24.28
2018-08-04T11:51:54.865Z,24.28
2018-08-04T11:52:55.077Z,24.26
2018-08-04T11:53:54.899Z,24.28
2018-08-04T11:54:54.859Z,24.27
2018-08-04T11:55:54.865Z,24.26
2018-08-04T11:56:54.621Z,24.26
2018-08-04T11:57:54.811Z,24.26
2018-08-04T11:58:54.743Z,24.27
2018-08-04T11:59:54.760Z,24.26
2018-08-04T12:00:55.008Z,24.26
2018-08-04T12:01:55.010Z,24.26
2018-08-04T12:02:54.748Z,24.26
2018-08-04T12:03:54.929Z,24.28
2018-08-04T12:04:54.738Z,24.25
2018-08-04T12:05:54.793Z,24.27
2018-08-04T12:06:54.943Z,24.26
2018-08-04T12:07:54.860Z,24.26
2018-08-04T12:08:55.024Z,24.27
2018-08-04T12:09:54.803Z,24.27
2018-08-04T12:10:54.669Z,24.26
2018-08-04T12:11:54.838Z,24.26
2018-08-04T12:12:54.876Z,24.27
2018-08-04T12:13:54.738Z,24.26
2018-08-04T12:14:54.554Z,24.32
2018-08-04T12:15:54.709Z,24.35
2018-08-04T12:16:54.968Z,24.34
2018-08-04T12:17:54.716Z,24.35
2018-08-04T12:18:54.803Z,24.34
2018-08-04T12:19:54.631Z,24.38
2018-08-04T12:21:05.224Z,24.39
2018-08-04T12:21:54.780Z,24.39
2018-08-04T12:22:54.742Z,24.41
2018-08-04T12:23:54.877Z,24.4
2018-08-04T12:24:54.873Z,24.42
2018-08-04T12:25:54.811Z,24.43
2018-08-04T12:26:54.756Z,24.46
2018-08-04T12:27:54.872Z,24.45
2018-08-04T12:28:54.713Z,24.46
2018-08-04T12:29:54.854Z,24.49
2018-08-04T12:30:54.995Z,24.53
2018-08-04T12:31:54.663Z,24.5
2018-08-04T12:32:54.819Z,24.49
2018-08-04T12:33:54.929Z,24.5
2018-08-04T12:34:54.758Z,24.54
2018-08-04T12:35:54.636Z,24.54
2018-08-04T12:36:54.782Z,24.55
2018-08-04T12:37:54.574Z,24.56
2018-08-04T12:38:54.804Z,24.56
2018-08-04T12:39:54.901Z,24.56
2018-08-04T12:40:54.976Z,24.59
2018-08-04T12:41:54.895Z,24.6
2018-08-04T12:42:54.809Z,24.61
2018-08-04T12:43:54.834Z,24.62
2018-08-04T12:44:54.842Z,24.62
2018-08-04T12:45:56.800Z,24.63
2018-08-04T12:46:54.610Z,24.65
2018-08-04T12:47:54.796Z,24.65
2018-08-04T12:48:54.884Z,24.68
2018-08-04T12:49:54.743Z,24.69
2018-08-04T12:50:54.617Z,24.68
2018-08-04T12:51:54.974Z,24.69
2018-08-04T12:52:54.669Z,24.68
2018-08-04T12:53:54.696Z,24.69
2018-08-04T12:54:54.891Z,24.7
2018-08-04T12:55:54.743Z,24.7